Missingham, Australia

12:43 AM AEST on July 22, 2017 (GMT +1000)
Geneva, Kyogle | | Change Station

Elev 272 ft 28.64 °S, 152.98 °E | Updated 38 seconds ago

Clear
Clear
42.1 °F
Feels Like 42 °F
N
0.0
Wind Variable Wind from WNW
Gusts 0.0 mph

Today
High -- | Low -- °F
--% Chance of Precip.
Yesterday
High -- | Low -- °F
Precip. -- in
Pressure 30.15 in
Visibility 6.2 miles
Clouds
Windchill 42 °F
Dew Point 38 °F
Humidity 84%
Rainfall 0.00 in
Snow Depth Not available.
6:36 AM 5:11 PM
Waning Crescent, 5% visible
METAR YBCG 211430Z AUTO 21007KT 9999 // NCD 14/06 Q1021 RF00.0/000.0
Pressure 30.15 in
Visibility 6.2 miles
Clouds
Windchill 42 °F
Dew Point 38 °F
Humidity 84%
Rainfall 0.00 in
Snow Depth Not available.
6:36 AM 5:11 PM
Waning Crescent, 5% visible
METAR YBCG 211430Z AUTO 21007KT 9999 // NCD 14/06 Q1021 RF00.0/000.0

Get Severe Weather Alerts

Thanks for signing up!

Be on the lookout for a verification email in your inbox.

You'll start receiving the daily forecast at 6 AM.

×

10-Day Weather Forecast

×

Almanac

Astronomy

Jul. 22, 2017 Rise Set
Actual Time
Civil Twilight
Nautical Twilight
Astronomical Twilight
Moon
Length of Visible Light
Length of Day
Tomorrow will be .
, % of the Moon is Illuminated

Today's Extremes

Country Highs Country Lows

Community

WunderPhotos

Category 6

Welcome to Category 6. This is the collective home for Weather Underground's featured writeups by Dr. Jeff Masters (right), Bob Henson (left), Chris Burt, and other regular contributors.

Nearby

Air Quality

  Air Quality AQ Index Pollutant
Not available.

Snow Depth

Station Depth Elevation

Earthquake Activity

City Distance Mag. Time & Date
Minimum magnitude displayed is 2.5.

Coastal Water Temperatures

Place Temperature

Stations

Nearby Weather Stations

Station Location Temp. Windchill Dew Point Humidity Wind Precip. Elev Updated Type